Flight Track Log - Related Links

Times and Time Zones

All times are in EDT time to prevent confusion due to time zone crossing. See the N524NK flight status page for this flight to view local times or setup timezone preferences in your user account.

Time Position Orientation Groundspeed Altitude Reporting Facility
EDT Latitude Longitude Course Direction KTS MPH feet Rate Location/Type
Sat 05:29:27 AM 42.3190 -70.8770 72° East 252 290 3,700  Level FlightAware ADS-B
Sat 05:30:07 AM 42.3290 -70.8240 76° East 265 305 5,800 3,300 Climbing FlightAware ADS-B
Sat 05:30:47 AM 42.3170 -70.7540 103° East 281 323 8,100 3,400 Climbing FlightAware ADS-B
Sat 05:31:07 AM 42.2970 -70.7210 129° Southeast 297 342 9,200 2,667 Climbing FlightAware ADS-B
Sat 05:31:32 AM 42.2690 -70.7120 167° South 305 351 10,100 1,800 Climbing FlightAware ADS-B
Sat 05:31:57 AM 42.2360 -70.7320 204° Southwest 327 376 10,700 2,123 Climbing FlightAware ADS-B
Sat 05:32:37 AM 42.1870 -70.7940 223° Southwest 349 402 12,400 2,894 Climbing FlightAware ADS-B
Sat 05:33:22 AM 42.1360 -70.8550 222° Southwest 348 400 14,800 2,894 Climbing FlightAware ADS-B
Sat 05:34:02 AM 42.0860 -70.9150 222° Southwest 353 406 16,500 2,541 Climbing FlightAware ADS-B
Sat 05:34:47 AM 42.0310 -70.9820 222° Southwest 367 422 18,400 2,471 Climbing FlightAware ADS-B
Sat 05:35:27 AM 41.9770 -71.0470 222° Southwest 372 428 20,000 2,175 Climbing FlightAware ADS-B
Sat 05:36:07 AM 41.9250 -71.1110 222° Southwest 388 447 21,300 2,047 Climbing FlightAware ADS-B
Sat 05:36:52 AM 41.8660 -71.1830 222° Southwest 392 451 22,900 1,906 Climbing FlightAware ADS-B
Sat 05:37:32 AM 41.8100 -71.2500 222° Southwest 396 456 24,000 1,629 Climbing FlightAware ADS-B
Sat 05:38:02 AM 41.7680 -71.3020 223° Southwest 409 471 24,800 1,600 Climbing FlightAware ADS-B
Sat 05:38:47 AM 41.7040 -71.3780 222° Southwest 413 475 26,000 1,733 Climbing FlightAware ADS-B
Sat 05:39:32 AM 41.6400 -71.4560 222° Southwest 412 474 27,400 1,650 Climbing FlightAware ADS-B
Sat 05:40:07 AM 41.5890 -71.5170 222° Southwest 416 479 28,200 1,440 Climbing FlightAware ADS-B
Sat 05:40:47 AM 41.5270 -71.5910 222° Southwest 430 495 29,200 1,350 Climbing FlightAware ADS-B
Sat 05:41:27 AM 41.4680 -71.6620 222° Southwest 437 503 30,000 1,200 Climbing FlightAware ADS-B
Sat 05:42:12 AM 41.3990 -71.7440 222° Southwest 441 507 30,900 1,412 Climbing FlightAware ADS-B
Sat 05:42:52 AM 41.3400 -71.8140 222° Southwest 437 503 32,000 1,500 Climbing FlightAware ADS-B
Sat 05:43:32 AM 41.2820 -71.8820 221° Southwest 438 504 32,900 1,200 Climbing FlightAware ADS-B
Sat 05:44:17 AM 41.2130 -71.9650 222° Southwest 439 505 33,700 1,518 Climbing FlightAware ADS-B
Sat 05:44:55 AM 41.1505 -72.0380 221° Southwest 429 494 35,000 1,324 Climbing FlightAware ADS-B
Sat 05:45:25 AM 41.1056 -72.0909 222° Southwest 437 503 35,200 500 Climbing FlightAware ADS-B
Sat 05:45:55 AM 41.0594 -72.1451 222° Southwest 443 510 35,500 700 Climbing FlightAware ADS-B
Sat 05:46:25 AM 41.0134 -72.1994 222° Southwest 446 513 35,900 984 Climbing FlightAware ADS-B
Sat 05:46:56 AM 40.9656 -72.2550 221° Southwest 442 509 36,500 1,082 Climbing FlightAware ADS-B
Sat 05:47:26 AM 40.9190 -72.3095 221° Southwest 441 507 37,000 800 Climbing FlightAware ADS-B
Sat 05:47:56 AM 40.8733 -72.3628 221° Southwest 444 511 37,300 787 Climbing FlightAware ADS-B
Sat 05:48:27 AM 40.8260 -72.4178 221° Southwest 441 507 37,800 677 Climbing FlightAware ADS-B
Sat 05:48:58 AM 40.7795 -72.4722 222° Southwest 443 510 38,000 197 Climbing FlightAware ADS-B
Sat 05:49:28 AM 40.7321 -72.5269 221° Southwest 441 507 38,000  Level FlightAware ADS-B
Sat 05:49:59 AM 40.6858 -72.5800 221° Southwest 442 509 38,000  Level FlightAware ADS-B
Sat 05:50:29 AM 40.6390 -72.6338 221° Southwest 440 506 38,000  Level FlightAware ADS-B
Sat 05:50:59 AM 40.5931 -72.6868 221° Southwest 439 505 38,000  Level FlightAware ADS-B
Sat 05:51:32 AM 40.5436 -72.7442 221° Southwest 440 506 38,000  Level FlightAware ADS-B
Sat 05:52:02 AM 40.4973 -72.7975 221° Southwest 440 506 38,000  Level FlightAware ADS-B
Sat 05:52:33 AM 40.4501 -72.8512 221° Southwest 441 507 38,000  Level FlightAware ADS-B
Sat 05:53:05 AM 40.4000 -72.9083 221° Southwest 440 506 38,000  Level FlightAware ADS-B
Sat 05:53:36 AM 40.3532 -72.9616 221° Southwest 441 507 38,000  Level FlightAware ADS-B
Sat 05:53:46 AM 40.3371 -72.9781 218° Southwest 444 511 38,000  Level FlightAware ADS-B
Sat 05:54:16 AM 40.2858 -73.0243 214° Southwest 446 513 38,000  Level FlightAware ADS-B
Sat 05:54:47 AM 40.2328 -73.0719 214° Southwest 445 512 38,000  Level FlightAware ADS-B
Sat 05:55:18 AM 40.1809 -73.1180 214° Southwest 444 511 38,000  Level FlightAware ADS-B
Sat 05:55:49 AM 40.1286 -73.1648 214° Southwest 442 509 38,000  Level FlightAware ADS-B
Sat 05:56:19 AM 40.0780 -73.2101 214° Southwest 441 507 38,000  Level FlightAware ADS-B
Sat 05:56:49 AM 40.0272 -73.2557 215° Southwest 440 506 38,000  Level FlightAware ADS-B
Sat 05:57:19 AM 39.9765 -73.3010 214° Southwest 439 505 38,000  Level FlightAware ADS-B
Sat 05:57:50 AM 39.9256 -73.3465 214° Southwest 439 505 38,000  Level FlightAware ADS-B
Sat 05:58:20 AM 39.8745 -73.3920 214° Southwest 440 506 38,000  Level FlightAware ADS-B
Sat 05:58:51 AM 39.8236 -73.4373 214° Southwest 438 504 38,000  Level FlightAware ADS-B
Sat 05:59:21 AM 39.7724 -73.4828 214° Southwest 437 503 38,000  Level FlightAware ADS-B
Sat 05:59:52 AM 39.7220 -73.5275 214° Southwest 435 501 38,000  Level FlightAware ADS-B
Sat 06:00:23 AM 39.6697 -73.5737 214° Southwest 434 499 38,000  Level FlightAware ADS-B
Sat 06:00:54 AM 39.6188 -73.6183 214° Southwest 434 499 38,000  Level FlightAware ADS-B
Sat 06:01:24 AM 39.5700 -73.6612 214° Southwest 431 496 38,000  Level FlightAware ADS-B
Sat 06:01:54 AM 39.5189 -73.7054 214° Southwest 429 494 38,000  Level FlightAware ADS-B
Sat 06:02:25 AM 39.4696 -73.7486 214° Southwest 428 493 38,000  Level FlightAware ADS-B
Sat 06:02:55 AM 39.4195 -73.7925 214° Southwest 430 495 38,000 -98 Level FlightAware ADS-B
Sat 06:03:26 AM 39.3695 -73.8365 214° Southwest 433 498 37,900  Descending FlightAware ADS-B
Sat 06:03:56 AM 39.3188 -73.8812 214° Southwest 434 499 38,000 100 Climbing FlightAware ADS-B
Sat 06:04:26 AM 39.2686 -73.9250 214° Southwest 436 502 38,000  Level FlightAware ADS-B
Sat 06:04:57 AM 39.2173 -73.9695 214° Southwest 437 503 38,000  Level FlightAware ADS-B
Sat 06:05:28 AM 39.1661 -74.0139 214° Southwest 438 504 38,000  Level FlightAware ADS-B
Sat 06:05:58 AM 39.1144 -74.0587 214° Southwest 438 504 38,000  Level FlightAware ADS-B
Sat 06:06:28 AM 39.0641 -74.1019 214° Southwest 440 506 38,000  Level FlightAware ADS-B
Sat 06:06:59 AM 39.0128 -74.1462 214° Southwest 439 505 38,000  Level FlightAware ADS-B
Sat 06:07:27 AM 38.9653 -74.1874 214° Southwest 438 504 38,000  Level FlightAware ADS-B
Sat 06:07:58 AM 38.9123 -74.2330 214° Southwest 438 504 38,000  Level FlightAware ADS-B
Sat 06:08:29 AM 38.8603 -74.2773 214° Southwest 437 503 38,000  Level FlightAware ADS-B
Sat 06:09:01 AM 38.8077 -74.3221 214° Southwest 435 501 38,000  Level FlightAware ADS-B
Sat 06:09:31 AM 38.7564 -74.3660 214° Southwest 433 498 38,000  Level FlightAware ADS-B
Sat 06:10:01 AM 38.7064 -74.4088 214° Southwest 432 497 38,000  Level FlightAware ADS-B
Sat 06:10:32 AM 38.6564 -74.4515 214° Southwest 432 497 38,000  Level FlightAware ADS-B
Sat 06:11:02 AM 38.6054 -74.4950 214° Southwest 434 499 38,000  Level FlightAware ADS-B
Sat 06:11:32 AM 38.5554 -74.5373 213° Southwest 434 499 38,000  Level FlightAware ADS-B
Sat 06:12:03 AM 38.5038 -74.5806 213° Southwest 433 498 38,000  Level FlightAware ADS-B
Sat 06:12:33 AM 38.4538 -74.6228 213° Southwest 432 497 38,000  Level FlightAware ADS-B
Sat 06:13:03 AM 38.4035 -74.6654 214° Southwest 432 497 38,000  Level FlightAware ADS-B
Sat 06:13:34 AM 38.3529 -74.7083 214° Southwest 432 497 38,000  Level FlightAware ADS-B
Sat 06:14:04 AM 38.3021 -74.7516 214° Southwest 433 498 38,000  Level FlightAware ADS-B
Sat 06:14:35 AM 38.2509 -74.7947 213° Southwest 434 499 38,000  Level FlightAware ADS-B
Sat 06:15:36 AM 38.1478 -74.8811 213° Southwest 435 501 38,000  Level FlightAware ADS-B
Sat 06:16:06 AM 38.0973 -74.9231 213° Southwest 437 503 38,000  Level FlightAware ADS-B
Sat 06:16:37 AM 38.0458 -74.9658 213° Southwest 437 503 38,000  Level FlightAware ADS-B
Sat 06:17:07 AM 37.9937 -75.0095 213° Southwest 438 504 38,000  Level FlightAware ADS-B
Sat 06:17:38 AM 37.9425 -75.0522 213° Southwest 436 502 38,000 67 Level FlightAware ADS-B
Sat 06:18:37 AM 37.8490 -75.1290 213° Southwest 424 488 38,100  Climbing FlightAware ADS-B
Sat 06:18:48 AM 37.8244 -75.1500 214° Southwest 434 499 38,000 -143 Descending FlightAware ADS-B
Sat 06:19:19 AM 37.7744 -75.1911 213° Southwest 427 491 38,000  Level FlightAware ADS-B
Sat 06:19:49 AM 37.7244 -75.2327 213° Southwest 425 489 38,000  Level FlightAware ADS-B
Sat 06:20:19 AM 37.6744 -75.2741 213° Southwest 425 489 38,000  Level FlightAware ADS-B
Sat 06:20:50 AM 37.6235 -75.3158 213° Southwest 424 488 38,000  Level FlightAware ADS-B
Sat 06:21:20 AM 37.5740 -75.3563 213° Southwest 424 488 38,000  Level FlightAware ADS-B
Sat 06:21:51 AM 37.5242 -75.3971 213° Southwest 424 488 38,000  Level FlightAware ADS-B
Sat 06:22:32 AM 37.4567 -75.4525 213° Southwest 425 489 38,000  Level FlightAware ADS-B
Sat 06:23:27 AM 37.3710 -75.5230 213° Southwest 421 484 38,000  Level FlightAware ADS-B
Sat 06:24:12 AM 37.2970 -75.5830 213° Southwest 422 486 38,000 82 Level FlightAware ADS-B
Sat 06:24:40 AM 37.2442 -75.6260 213° Southwest 428 493 38,100  Climbing FlightAware ADS-B
Sat 06:25:10 AM 37.1938 -75.6668 213° Southwest 427 491 38,000 -98 Descending FlightAware ADS-B
Sat 06:25:41 AM 37.1426 -75.7083 213° Southwest 427 491 38,000  Level FlightAware ADS-B
Sat 06:26:11 AM 37.0927 -75.7486 213° Southwest 427 491 38,000  Level FlightAware ADS-B
Sat 06:26:43 AM 37.0403 -75.7907 213° Southwest 426 490 38,000  Level FlightAware ADS-B
Sat 06:27:16 AM 36.9860 -75.8348 213° Southwest 426 490 38,000 -381 Level FlightAware ADS-B
Sat 06:27:46 AM 36.9352 -75.8758 213° Southwest 427 491 37,600 -885 Descending FlightAware ADS-B
Sat 06:28:17 AM 36.8850 -75.9165 213° Southwest 428 493 37,100 -986 Descending FlightAware ADS-B
Sat 06:28:59 AM 36.8141 -75.9734 213° Southwest 431 496 36,400 -973 Descending FlightAware ADS-B
Sat 06:29:31 AM 36.7601 -76.0159 212° Southwest 428 493 35,900 -886 Descending FlightAware ADS-B
Sat 06:30:27 AM 36.6780 -76.0810 212° Southwest 424 488 35,100 -950 Descending FlightAware ADS-B
Sat 06:31:12 AM 36.5980 -76.1460 213° Southwest 426 490 34,300 -776 Descending FlightAware ADS-B
Sat 06:31:52 AM 36.5360 -76.1950 212° Southwest 436 502 34,000 -225 Descending FlightAware ADS-B
Sat 06:32:32 AM 36.4700 -76.2540 216° Southwest 429 494 34,000  Level FlightAware ADS-B
Sat 06:33:17 AM 36.4040 -76.3200 219° Southwest 420 483 34,000  Level FlightAware ADS-B
Sat 06:34:07 AM 36.3250 -76.4000 219° Southwest 421 484 34,000  Level FlightAware ADS-B
Sat 06:34:47 AM 36.2730 -76.4520 219° Southwest 421 484 34,000  Level FlightAware ADS-B
Sat 06:35:37 AM 36.2090 -76.5160 219° Southwest 421 484 34,000  Level FlightAware ADS-B
Sat 06:36:17 AM 36.1570 -76.5680 219° Southwest 421 484 34,000  Level FlightAware ADS-B
Sat 06:36:47 AM 36.1190 -76.6070 220° Southwest 421 484 34,000  Level FlightAware ADS-B
Sat 06:37:17 AM 36.0800 -76.6450 218° Southwest 421 484 34,000  Level FlightAware ADS-B
Sat 06:37:57 AM 36.0290 -76.6970 220° Southwest 421 484 34,000  Level FlightAware ADS-B
Sat 06:38:47 AM 35.9640 -76.7610 219° Southwest 421 484 34,000  Level FlightAware ADS-B
Sat 06:39:27 AM 35.9130 -76.8130 220° Southwest 421 484 34,000  Level FlightAware ADS-B
Sat 06:40:07 AM 35.8610 -76.8640 218° Southwest 421 484 34,000  Level FlightAware ADS-B
Sat 06:40:47 AM 35.8100 -76.9160 220° Southwest 421 484 34,000  Level FlightAware ADS-B
Sat 06:41:27 AM 35.7580 -76.9670 219° Southwest 421 484 34,000  Level FlightAware ADS-B
Sat 06:42:17 AM 35.6940 -77.0310 219° Southwest 421 484 34,000  Level FlightAware ADS-B
Sat 06:42:57 AM 35.6430 -77.0820 219° Southwest 421 484 34,000  Level FlightAware ADS-B
Sat 06:43:37 AM 35.5910 -77.1340 219° Southwest 421 484 34,000  Level FlightAware ADS-B
Sat 06:44:15 AM 35.3842 -77.3244 219° Southwest 427 491 34,000 -184 Level Washington Center
Sat 06:45:15 AM 35.2908 -77.4167 219° Southwest 427 491 33,700 -639 Descending Washington Center
Sat 06:46:17 AM 35.1956 -77.5033 217° Southwest 427 491 32,700 -984 Descending Washington Center
Sat 06:47:17 AM 35.1044 -77.5928 219° Southwest 427 491 31,700 -1,017 Descending Washington Center
Sat 06:48:15 AM 35.0069 -77.6867 218° Southwest 433 498 30,700 -1,008 Descending Washington Center
Sat 06:49:16 AM 34.9092 -77.7778 217° Southwest 439 505 29,700 -1,050 Descending Washington Center
Sat 06:50:15 AM 34.7986 -77.8861 219° Southwest 455 524 28,600 -2,344 Descending Washington Center
Sat 06:52:28 AM 34.5756 -78.0992 218° Southwest 464 534 22,200 -2,829 Descending Jacksonville Center
Sat 06:53:28 AM 34.4769 -78.1903 217° Southwest 464 534 19,500 -2,650 Descending Jacksonville Center
Sat 06:54:28 AM 34.3842 -78.2783 218° Southwest 448 516 16,900 -1,780 Descending Jacksonville Center
Sat 06:59:32 AM 34.0140 -78.6580 218° Southwest 284 327 8,700 -1,646 Descending FlightAware ADS-B
Sat 07:00:07 AM 33.9820 -78.6980 226° Southwest 287 330 7,600 -1,900 Descending FlightAware ADS-B
Sat 07:00:32 AM 33.9590 -78.7250 224° Southwest 293 337 6,800 -1,667 Descending FlightAware ADS-B
Sat 07:01:37 AM 33.9580 -78.7250 180° South 294 338 5,100 -2,121 Descending FlightAware ADS-B
Sat 07:02:28 AM 33.8511 -78.8542 180° South 290 334 2,700 -1,892 Descending Jacksonville Center
Sat 07:03:28 AM 33.8008 -78.9114 223° Southwest 279 321 1,600 -600 Descending Jacksonville Center
Sat 07:04:28 AM 33.7558 -78.9458 212° Southwest 252 290 1,500 -100 Descending Jacksonville Center
Sat 07:06:00 AM 33.6797 -78.9283 212° Southwest  Level Estimated

Login

Don't have an account? Register now (free) for customized features, flight alerts, and more!